Time;durP1;ratioP1;P1;durP2;ratioP2;P2;SDS_P1;SDS_P2;PMS_P1;PMS_P2;Temp;Humidity;BMP_temperature;BMP_pressure;BME280_temperature;BME280_humidity;BME280_pressure;Samples;Min_cycle;Max_cycle;Signal;HPM_P1;HPM_P2
2021/03/04 00:02:36;;;;;;;5.30;1.30;;;;;;;2.98;53.62;101579.13;6337041;28;20186;-74
2021/03/04 00:05:40;;;;;;;0.80;0.80;;;;;;;2.96;52.93;101578.44;6337890;28;20261;-73
2021/03/04 00:08:44;;;;;;;5.20;1.10;;;;;;;2.92;52.81;101563.59;6338298;28;20253;-74
2021/03/04 00:11:49;;;;;;;1.23;0.87;;;;;;;2.97;52.62;101572.06;6319443;28;20200;-73
2021/03/04 00:14:52;;;;;;;6.07;1.27;;;;;;;2.89;52.74;101574.66;6336903;28;20183;-73
2021/03/04 00:18:36;;;;;;;2.00;1.10;;;;;;;2.95;52.40;101574.06;6337164;28;20195;-74
2021/03/04 00:21:40;;;;;;;0.90;0.90;;;;;;;2.97;52.56;101572.91;6336758;28;20188;-74
2021/03/04 00:24:43;;;;;;;1.00;1.00;;;;;;;2.96;53.17;101581.13;6336722;28;20435;-74
2021/03/04 00:27:47;;;;;;;2.13;0.90;;;;;;;2.99;53.11;101576.31;6337970;28;20277;-73
2021/03/04 00:30:51;;;;;;;2.13;1.20;;;;;;;2.96;52.85;101590.06;6337840;28;20298;-75
2021/03/04 00:33:55;;;;;;;2.33;0.93;;;;;;;2.91;53.56;101584.28;6337939;28;20184;-74
2021/03/04 00:36:58;;;;;;;2.17;1.00;;;;;;;2.79;53.43;101584.63;6337438;28;20258;-73
2021/03/04 00:40:06;;;;;;;2.60;0.90;;;;;;;2.79;53.45;101579.25;6337839;28;20184;-73
2021/03/04 00:43:13;;;;;;;2.27;1.20;;;;;;;2.68;53.93;101592.91;6336876;28;20241;-74
2021/03/04 00:46:17;;;;;;;4.00;1.00;;;;;;;2.58;51.75;101592.94;6336292;28;20569;-73
2021/03/04 00:49:20;;;;;;;2.80;1.37;;;;;;;2.53;51.67;101585.31;6337071;28;20229;-74
2021/03/04 00:52:23;;;;;;;1.33;0.80;;;;;;;2.47;51.63;101596.66;6337360;28;20189;-74
2021/03/04 00:55:27;;;;;;;5.63;1.10;;;;;;;2.33;52.17;101593.59;6336924;28;20184;-73
2021/03/04 00:58:31;;;;;;;4.23;0.90;;;;;;;2.41;52.09;101591.84;6337413;28;20189;-73
2021/03/04 01:01:34;;;;;;;6.60;1.10;;;;;;;2.46;51.85;101584.22;6337445;28;20223;-74
2021/03/04 01:04:38;;;;;;;3.10;1.00;;;;;;;2.46;52.35;101589.59;6336131;28;20205;-74
2021/03/04 01:07:42;;;;;;;8.33;1.17;;;;;;;2.49;51.99;101589.28;6337061;28;20210;-73
2021/03/04 01:10:45;;;;;;;4.20;1.13;;;;;;;2.35;52.32;101589.75;6337386;28;20185;-74
2021/03/04 01:13:49;;;;;;;5.20;0.80;;;;;;;2.18;52.37;101585.13;6337403;28;20214;-74
2021/03/04 01:16:52;;;;;;;2.00;0.90;;;;;;;2.24;52.70;101584.53;6336859;28;20360;-74
2021/03/04 01:19:56;;;;;;;1.13;0.90;;;;;;;2.17;52.40;101596.88;6336069;28;20266;-74
2021/03/04 01:23:00;;;;;;;2.47;0.90;;;;;;;2.09;53.27;101585.97;6337130;28;20183;-74
2021/03/04 01:26:04;;;;;;;3.13;1.00;;;;;;;2.20;52.43;101593.91;6341324;28;20206;-74
2021/03/04 01:29:08;;;;;;;0.80;0.80;;;;;;;2.25;52.86;101591.63;6340868;28;20371;-74
2021/03/04 01:32:11;;;;;;;3.17;0.97;;;;;;;1.99;53.27;101585.16;6340672;28;20347;-74
2021/03/04 01:35:16;;;;;;;2.27;1.00;;;;;;;1.94;53.14;101582.03;6340623;28;20409;-74
2021/03/04 01:38:19;;;;;;;4.07;1.00;;;;;;;1.86;53.23;101589.97;6341501;28;20210;-75
2021/03/04 01:41:24;;;;;;;1.00;1.00;;;;;;;1.85;53.81;101582.88;6341229;28;20258;-75
2021/03/04 01:44:28;;;;;;;0.97;0.90;;;;;;;1.83;53.01;101590.25;6341350;28;20284;-74
2021/03/04 01:47:33;;;;;;;2.77;1.07;;;;;;;1.72;53.11;101593.09;6340055;28;20517;-75
2021/03/04 01:50:36;;;;;;;0.90;0.90;;;;;;;1.79;53.45;101594.22;6340197;28;20249;-74
2021/03/04 01:53:40;;;;;;;1.00;0.80;;;;;;;1.62;53.63;101593.09;6341188;28;20189;-75
2021/03/04 01:56:44;;;;;;;0.90;0.90;;;;;;;1.62;53.30;101584.16;6341372;28;20225;-74
2021/03/04 01:59:48;;;;;;;0.90;0.90;;;;;;;1.69;53.00;101580.78;6341397;28;20250;-74
2021/03/04 02:02:52;;;;;;;2.83;1.00;;;;;;;1.70;53.91;101589.69;6310624;22;20233;-73
2021/03/04 02:05:55;;;;;;;3.00;1.07;;;;;;;1.67;53.63;101584.63;6241278;28;20232;-73
2021/03/04 02:09:01;;;;;;;1.20;1.10;;;;;;;1.77;53.43;101574.69;6240368;28;20221;-73
2021/03/04 02:12:18;;;;;;;2.67;1.00;;;;;;;1.74;53.23;101585.75;6240523;28;20186;-73
2021/03/04 02:15:26;;;;;;;0.97;0.97;;;;;;;1.53;53.10;101560.81;6240250;28;20472;-73
2021/03/04 02:18:34;;;;;;;2.43;1.00;;;;;;;1.54;53.42;101567.91;6241047;28;20193;-73
2021/03/04 02:21:45;;;;;;;1.23;1.17;;;;;;;1.56;54.38;101565.91;6239901;28;20485;-72
2021/03/04 02:24:57;;;;;;;2.73;0.90;;;;;;;1.47;54.37;101555.97;6241178;28;20242;-72
2021/03/04 02:28:03;;;;;;;1.90;1.30;;;;;;;1.60;54.17;101561.94;6239746;28;20442;-73
2021/03/04 02:31:09;;;;;;;1.23;1.10;;;;;;;1.52;53.58;101554.56;6239541;28;20202;-72
2021/03/04 02:34:14;;;;;;;0.83;0.83;;;;;;;1.59;53.73;101549.50;6240999;28;20187;-72
2021/03/04 02:37:20;;;;;;;1.27;1.10;;;;;;;1.53;54.05;101524.00;6240694;28;20232;-72
2021/03/04 02:40:26;;;;;;;1.30;1.00;;;;;;;1.38;54.61;101524.59;6239664;28;20472;-74
2021/03/04 02:43:31;;;;;;;4.30;1.10;;;;;;;1.41;54.61;101527.00;6239878;28;20195;-74
2021/03/04 02:46:38;;;;;;;0.97;0.97;;;;;;;1.30;54.96;101548.63;6240435;28;20224;-73
2021/03/04 02:49:43;;;;;;;3.10;1.07;;;;;;;1.39;54.31;101542.44;6239502;28;20539;-73
2021/03/04 02:52:48;;;;;;;3.87;1.17;;;;;;;1.24;54.76;101533.91;6240353;28;20228;-74
2021/03/04 02:55:53;;;;;;;0.70;0.70;;;;;;;1.13;55.03;101540.25;6240576;28;20223;-74
2021/03/04 02:59:01;;;;;;;2.27;1.00;;;;;;;1.02;55.50;101535.03;6240588;28;20193;-74
2021/03/04 03:02:07;;;;;;;1.70;1.00;;;;;;;1.04;55.49;101554.53;6240127;28;20239;-74
2021/03/04 03:05:13;;;;;;;1.23;1.00;;;;;;;0.97;55.81;101556.09;6240087;28;20254;-73
2021/03/04 03:08:19;;;;;;;2.97;1.00;;;;;;;0.99;55.76;101546.03;6238933;28;20553;-73
2021/03/04 03:11:22;;;;;;;1.00;1.00;;;;;;;1.24;55.75;101548.19;6240200;28;20196;-73
2021/03/04 03:14:28;;;;;;;3.50;0.80;;;;;;;1.05;55.83;101548.16;6240152;28;20227;-73
2021/03/04 03:17:32;;;;;;;4.53;0.90;;;;;;;1.15;55.80;101551.75;6239787;28;20197;-74
2021/03/04 03:20:36;;;;;;;0.80;0.80;;;;;;;0.89;55.95;101547.00;6239991;28;20189;-73
2021/03/04 03:23:40;;;;;;;0.80;0.80;;;;;;;0.96;56.00;101557.06;6239875;28;20193;-73
2021/03/04 03:26:43;;;;;;;0.70;0.70;;;;;;;0.82;56.40;101549.41;6238463;28;20211;-73
2021/03/04 03:29:47;;;;;;;2.23;1.00;;;;;;;0.78;56.54;101552.47;6239899;28;20231;-73
2021/03/04 03:32:56;;;;;;;0.83;0.83;;;;;;;0.94;56.16;101553.66;6239478;28;20189;-73
2021/03/04 03:35:59;;;;;;;0.90;0.90;;;;;;;0.57;57.37;101563.28;6239305;28;20258;-73
2021/03/04 03:39:05;;;;;;;1.50;0.90;;;;;;;0.44;57.81;101549.22;6238242;28;20478;-73
2021/03/04 03:42:09;;;;;;;3.53;1.10;;;;;;;0.66;57.33;101549.06;6238056;28;20290;-72
2021/03/04 03:45:18;;;;;;;3.07;0.97;;;;;;;0.79;57.21;101554.19;6239518;28;20265;-72
2021/03/04 03:48:23;;;;;;;1.00;1.00;;;;;;;0.79;57.00;101560.41;6238566;28;20224;-72
2021/03/04 03:51:27;;;;;;;1.00;1.00;;;;;;;0.68;57.03;101568.56;6237858;28;20483;-74
2021/03/04 03:54:30;;;;;;;0.93;0.80;;;;;;;0.45;58.81;101561.69;6239539;28;20187;-73
2021/03/04 03:57:35;;;;;;;1.40;1.10;;;;;;;0.53;57.62;101569.91;6236482;28;20244;-73
2021/03/04 04:00:41;;;;;;;2.27;1.10;;;;;;;0.53;57.40;101569.91;6236726;28;20204;-72
2021/03/04 04:03:48;;;;;;;3.20;1.00;;;;;;;0.50;57.71;101562.13;6238415;28;20290;-72
2021/03/04 04:06:53;;;;;;;0.90;0.90;;;;;;;0.60;58.09;101566.56;6237505;28;20666;-72
2021/03/04 04:09:58;;;;;;;2.40;1.00;;;;;;;0.52;57.97;101573.56;6238843;28;20219;-72
2021/03/04 04:13:02;;;;;;;1.13;0.97;;;;;;;0.56;57.68;101575.03;6238850;28;20256;-73
2021/03/04 04:16:08;;;;;;;7.10;1.10;;;;;;;0.61;57.71;101572.78;6237245;28;20212;-72
2021/03/04 04:19:12;;;;;;;1.37;1.07;;;;;;;0.51;57.81;101571.91;6238325;28;20199;-73
2021/03/04 04:22:17;;;;;;;6.73;1.57;;;;;;;0.58;58.20;101573.06;6238276;28;20215;-73
2021/03/04 04:25:21;;;;;;;2.67;1.10;;;;;;;0.50;58.23;101580.94;6237085;28;20203;-73
2021/03/04 04:28:26;;;;;;;2.83;1.00;;;;;;;0.39;58.65;101581.00;6238147;28;20216;-73
2021/03/04 04:31:30;;;;;;;1.50;1.10;;;;;;;0.50;58.67;101580.94;6238347;28;20189;-72
2021/03/04 04:34:34;;;;;;;1.77;1.03;;;;;;;0.47;59.42;101578.50;6236844;28;20368;-72
2021/03/04 04:37:37;;;;;;;1.70;1.00;;;;;;;0.34;58.95;101580.56;6236372;28;20385;-73
2021/03/04 04:40:42;;;;;;;1.57;1.10;;;;;;;0.16;59.89;101587.50;6237909;28;20186;-72
2021/03/04 04:43:45;;;;;;;1.53;1.20;;;;;;;0.32;59.53;101582.53;6236931;28;20471;-72
2021/03/04 04:46:49;;;;;;;0.90;0.90;;;;;;;0.14;59.87;101595.69;6238083;28;20211;-73
2021/03/04 04:49:53;;;;;;;1.17;0.90;;;;;;;0.34;59.52;101586.78;6238105;28;20188;-73
2021/03/04 04:52:56;;;;;;;8.33;1.10;;;;;;;0.28;59.51;101597.22;6237751;28;20187;-73
2021/03/04 04:55:59;;;;;;;3.60;1.50;;;;;;;0.23;59.93;101596.75;6238490;28;20194;-73
2021/03/04 04:59:04;;;;;;;3.30;1.20;;;;;;;0.33;59.89;101594.97;6239298;28;20197;-73
2021/03/04 05:02:08;;;;;;;11.23;1.30;;;;;;;0.30;59.47;101603.28;6241809;28;20573;-73
2021/03/04 05:05:12;;;;;;;1.93;1.37;;;;;;;0.27;59.66;101595.50;6242677;28;20270;-73
2021/03/04 05:08:18;;;;;;;1.23;1.10;;;;;;;0.23;59.58;101602.13;6241729;28;20216;-73
2021/03/04 05:11:21;;;;;;;3.33;1.20;;;;;;;0.16;60.50;101590.19;6243066;28;20254;-73
2021/03/04 05:14:24;;;;;;;2.30;1.03;;;;;;;0.38;59.45;101592.75;6240833;28;20215;-73
2021/03/04 05:17:28;;;;;;;4.13;1.30;;;;;;;0.36;59.98;101600.09;6241567;28;20248;-73
2021/03/04 05:20:32;;;;;;;1.97;1.17;;;;;;;0.32;60.07;101604.84;6240761;28;20382;-73
2021/03/04 05:23:35;;;;;;;3.33;1.57;;;;;;;0.39;59.30;101597.09;6242410;28;20187;-73
2021/03/04 05:26:39;;;;;;;2.97;1.30;;;;;;;0.33;60.32;101600.34;6242415;28;20187;-74
2021/03/04 05:29:43;;;;;;;1.17;1.17;;;;;;;0.23;60.33;101602.13;6241261;28;20536;-73
2021/03/04 05:32:47;;;;;;;5.40;1.27;;;;;;;0.29;60.34;101597.06;6240970;28;20498;-74
2021/03/04 05:35:51;;;;;;;1.80;1.20;;;;;;;0.34;60.06;101602.03;6241098;28;20529;-73
2021/03/04 05:38:54;;;;;;;2.60;1.30;;;;;;;0.22;60.69;101611.16;6241324;28;20213;-73
2021/03/04 05:41:58;;;;;;;2.83;1.17;;;;;;;0.29;60.43;101596.19;6241494;28;20213;-74
2021/03/04 05:45:03;;;;;;;1.20;1.20;;;;;;;0.40;59.76;101596.13;6242368;28;20196;-73
2021/03/04 05:48:12;;;;;;;4.40;1.60;;;;;;;0.33;59.86;101594.97;6242098;28;20228;-74
2021/03/04 05:51:22;;;;;;;2.67;1.30;;;;;;;0.30;59.87;101595.22;6240532;28;20441;-74
2021/03/04 05:54:28;;;;;;;6.60;1.07;;;;;;;0.36;59.85;101595.53;6241469;28;20189;-74
2021/03/04 05:57:32;;;;;;;6.30;1.10;;;;;;;0.33;60.83;101605.72;6240276;28;20218;-74
2021/03/04 06:00:41;;;;;;;2.70;1.30;;;;;;;0.26;60.03;101621.47;6240446;28;20364;-73
2021/03/04 06:03:53;;;;;;;2.63;1.00;;;;;;;0.07;61.26;101623.19;6240713;28;20272;-73
2021/03/04 06:06:56;;;;;;;4.73;1.63;;;;;;;0.29;61.58;101625.72;6241231;28;20187;-73
2021/03/04 06:09:59;;;;;;;3.07;1.20;;;;;;;0.25;60.76;101621.63;6239674;28;20484;-73
2021/03/04 06:13:05;;;;;;;4.90;1.23;;;;;;;0.24;61.39;101630.66;6241563;28;20238;-73
2021/03/04 06:16:08;;;;;;;2.33;1.33;;;;;;;0.24;60.09;101617.22;6241544;28;20202;-74
2021/03/04 06:19:20;;;;;;;7.43;1.23;;;;;;;0.11;61.04;101630.84;6240106;28;20200;-73
2021/03/04 06:22:27;;;;;;;1.43;1.33;;;;;;;0.16;60.80;101633.97;6241139;28;20188;-74
2021/03/04 06:25:31;;;;;;;3.40;1.40;;;;;;;0.19;61.65;101636.41;6241246;28;20250;-73
2021/03/04 06:28:34;;;;;;;7.73;1.30;;;;;;;0.31;61.51;101631.84;6238561;28;20469;-73
2021/03/04 06:31:37;;;;;;;1.57;1.17;;;;;;;0.35;61.16;101641.31;6239164;28;20249;-74
2021/03/04 06:34:41;;;;;;;2.93;1.20;;;;;;;0.36;60.80;101649.22;6240762;28;20193;-72
2021/03/04 06:37:45;;;;;;;4.57;1.30;;;;;;;0.44;60.44;101645.88;6241146;28;20231;-73
2021/03/04 06:40:50;;;;;;;3.93;1.33;;;;;;;0.39;60.78;101654.34;6240600;28;20194;-73
2021/03/04 06:44:01;;;;;;;4.20;1.20;;;;;;;0.47;60.77;101653.69;6238954;28;20493;-73
2021/03/04 06:47:06;;;;;;;2.37;1.20;;;;;;;0.35;60.98;101652.06;6238443;28;20204;-73
2021/03/04 06:50:21;;;;;;;9.73;1.83;;;;;;;0.44;61.34;101645.88;6240312;28;20206;-74
2021/03/04 06:53:25;;;;;;;4.63;1.30;;;;;;;0.47;61.21;101653.69;6238723;28;20203;-72
2021/03/04 06:56:30;;;;;;;5.97;1.40;;;;;;;0.28;61.45;101669.69;6238913;28;20210;-73
2021/03/04 06:59:39;;;;;;;12.00;1.87;;;;;;;0.32;62.05;101663.91;6239897;28;20191;-73
2021/03/04 07:02:50;;;;;;;4.87;1.60;;;;;;;0.40;61.71;101672.16;6239494;28;20240;-73
2021/03/04 07:05:55;;;;;;;3.97;1.50;;;;;;;0.54;61.05;101662.91;6239948;28;20196;-73
2021/03/04 07:08:59;;;;;;;8.13;1.37;;;;;;;0.46;60.95;101655.50;6239709;28;20210;-73
2021/03/04 07:12:03;;;;;;;7.80;2.13;;;;;;;0.52;62.26;101672.94;6239746;28;20188;-73
2021/03/04 07:15:10;;;;;;;2.07;1.33;;;;;;;0.52;61.64;101675.59;6240256;28;20227;-74
2021/03/04 07:18:21;;;;;;;2.17;1.40;;;;;;;0.49;61.06;101675.88;6239905;28;20192;-73
2021/03/04 07:21:27;;;;;;;6.47;1.30;;;;;;;0.40;62.18;101666.78;6238293;28;20210;-73
2021/03/04 07:24:31;;;;;;;4.50;1.20;;;;;;;0.51;62.09;101668.56;6238211;28;20208;-73
2021/03/04 07:27:35;;;;;;;3.83;1.40;;;;;;;0.53;61.94;101663.91;6239361;28;20216;-73
2021/03/04 07:30:39;;;;;;;1.20;1.20;;;;;;;0.62;61.38;101665.78;6239316;28;20193;-73
2021/03/04 07:33:46;;;;;;;5.30;1.60;;;;;;;0.45;61.90;101674.44;6237588;28;20218;-73
2021/03/04 07:36:51;;;;;;;7.00;1.23;;;;;;;0.57;61.91;101678.75;6239598;28;20187;-73
2021/03/04 07:39:58;;;;;;;4.80;1.47;;;;;;;0.63;61.73;101688.97;6238304;28;20238;-73
2021/03/04 07:43:02;;;;;;;4.80;1.27;;;;;;;0.65;61.58;101681.63;6238792;28;20188;-73
2021/03/04 07:46:09;;;;;;;13.63;1.80;;;;;;;0.71;61.68;101686.47;6237899;28;20195;-73
2021/03/04 07:49:12;;;;;;;10.97;1.60;;;;;;;0.55;62.00;101680.72;6237930;28;20216;-73
2021/03/04 07:52:19;;;;;;;9.63;1.70;;;;;;;0.62;61.83;101687.25;6239112;28;20189;-74
2021/03/04 07:55:23;;;;;;;5.60;1.47;;;;;;;0.47;62.14;101699.31;6237367;28;20203;-73
2021/03/04 07:58:37;;;;;;;11.63;1.70;;;;;;;0.52;62.65;101699.78;6238942;28;20246;-73
2021/03/04 08:01:41;;;;;;;2.77;1.23;;;;;;;0.61;62.03;101691.81;6237675;28;20270;-74
2021/03/04 08:04:45;;;;;;;3.87;1.00;;;;;;;0.71;61.97;101691.84;6236229;28;20235;-73
2021/03/04 08:07:50;;;;;;;14.00;1.47;;;;;;;0.72;61.74;101690.03;6238679;28;20279;-73
2021/03/04 08:10:54;;;;;;;4.00;1.20;;;;;;;0.87;62.30;101697.59;6237516;28;20356;-73
2021/03/04 08:13:58;;;;;;;4.73;1.30;;;;;;;0.91;61.79;101690.97;6238481;28;20199;-74
2021/03/04 08:17:02;;;;;;;3.43;1.20;;;;;;;1.09;61.31;101702.78;6237821;28;20196;-74
2021/03/04 08:20:09;;;;;;;10.57;1.43;;;;;;;0.93;61.97;101701.56;6238536;28;20199;-73
2021/03/04 08:23:20;;;;;;;6.23;1.70;;;;;;;0.97;61.76;101698.50;6238557;28;20195;-73
2021/03/04 08:26:25;;;;;;;3.83;1.50;;;;;;;0.94;61.73;101693.38;6238514;28;20196;-74
2021/03/04 08:29:30;;;;;;;3.20;1.07;;;;;;;1.16;61.73;101703.94;6237196;28;20538;-74
2021/03/04 08:32:35;;;;;;;3.80;1.60;;;;;;;1.24;61.53;101711.31;6236682;28;20188;-74
2021/03/04 08:35:41;;;;;;;7.47;1.23;;;;;;;1.08;61.96;101705.59;6238267;28;20221;-74
2021/03/04 08:38:46;;;;;;;1.10;1.10;;;;;;;0.96;63.07;101702.16;6238068;28;20236;-74
2021/03/04 08:41:49;;;;;;;2.23;1.33;;;;;;;0.94;62.37;101706.81;6238032;28;20188;-73
2021/03/04 08:44:53;;;;;;;10.43;1.20;;;;;;;0.80;62.96;101717.03;6237999;28;20189;-74
2021/03/04 08:47:57;;;;;;;4.70;1.23;;;;;;;0.88;62.93;101715.41;6236679;28;20549;-74
2021/03/04 08:51:04;;;;;;;4.63;1.03;;;;;;;1.01;63.16;101718.72;6237941;28;20195;-74
2021/03/04 08:54:23;;;;;;;1.20;0.87;;;;;;;0.76;63.52;101721.00;6236255;28;20190;-74
2021/03/04 08:57:28;;;;;;;1.40;1.20;;;;;;;0.80;63.51;101712.53;6238104;28;20186;-74
2021/03/04 09:00:32;;;;;;;3.97;1.20;;;;;;;0.80;63.89;101717.91;6238082;28;20193;-73
2021/03/04 09:04:03;;;;;;;5.33;1.40;;;;;;;0.87;63.35;101719.09;6236726;28;20525;-74
2021/03/04 09:07:06;;;;;;;1.60;1.13;;;;;;;0.86;63.31;101714.69;6236518;28;20211;-73
2021/03/04 09:10:12;;;;;;;1.53;1.03;;;;;;;0.80;63.96;101734.03;6235805;28;20242;-73
2021/03/04 09:13:20;;;;;;;2.40;1.20;;;;;;;0.98;63.17;101727.06;6237719;28;20189;-73
2021/03/04 09:16:24;;;;;;;2.70;1.47;;;;;;;1.02;63.54;101715.06;6236588;28;20380;-73
2021/03/04 09:19:29;;;;;;;5.77;1.40;;;;;;;1.09;63.48;101723.44;6236918;28;20191;-73
2021/03/04 09:22:34;;;;;;;5.70;1.20;;;;;;;1.10;62.89;101719.78;6237489;28;20227;-73
2021/03/04 09:25:38;;;;;;;1.07;1.03;;;;;;;1.14;63.13;101719.34;6236698;28;20235;-73
2021/03/04 09:28:42;;;;;;;4.50;1.20;;;;;;;1.02;63.35;101709.69;6237417;28;20262;-74
2021/03/04 09:31:52;;;;;;;10.47;1.47;;;;;;;1.13;63.10;101717.66;6237226;28;20196;-73
2021/03/04 09:34:56;;;;;;;1.97;1.00;;;;;;;0.93;63.12;101713.16;6236769;28;20236;-74
2021/03/04 09:38:07;;;;;;;6.93;1.40;;;;;;;0.97;63.87;101706.56;6236670;28;20307;-73
2021/03/04 09:41:13;;;;;;;4.30;1.00;;;;;;;0.96;63.52;101707.53;6236971;28;20226;-73
2021/03/04 09:44:16;;;;;;;3.93;1.50;;;;;;;0.97;63.64;101706.56;6236186;28;20189;-73
2021/03/04 09:47:21;;;;;;;3.03;1.40;;;;;;;1.13;62.96;101709.56;6239583;28;20202;-73
2021/03/04 09:50:26;;;;;;;9.70;3.83;;;;;;;1.24;62.61;101708.63;6240553;28;20267;-73
2021/03/04 09:53:30;;;;;;;5.00;2.50;;;;;;;1.10;63.47;101709.88;6240495;28;20486;-76
2021/03/04 09:56:34;;;;;;;4.87;1.80;;;;;;;1.19;63.16;101714.44;6240055;28;20212;-73
2021/03/04 09:59:44;;;;;;;1.53;1.40;;;;;;;1.30;62.52;101715.31;6240458;28;20439;-74
2021/03/04 10:02:49;;;;;;;5.03;1.23;;;;;;;1.28;62.74;101716.28;6241269;28;20236;-74
2021/03/04 10:05:53;;;;;;;1.50;1.20;;;;;;;1.38;62.35;101710.09;6240199;28;20533;-73
2021/03/04 10:08:56;;;;;;;2.10;1.33;;;;;;;1.55;62.05;101720.19;6241072;28;20212;-73
2021/03/04 10:12:02;;;;;;;3.33;1.53;;;;;;;1.58;61.58;101719.94;6239299;28;20205;-75
2021/03/04 10:15:08;;;;;;;3.97;1.60;;;;;;;1.67;61.55;101719.13;6240179;28;20534;-74
2021/03/04 10:18:19;;;;;;;9.27;2.00;;;;;;;1.82;61.72;101720.41;6240127;28;20188;-73
2021/03/04 10:21:22;;;;;;;2.43;1.70;;;;;;;1.76;60.70;101712.88;6241127;28;20204;-75
2021/03/04 10:24:25;;;;;;;3.33;1.23;;;;;;;1.55;60.97;101714.81;6241395;28;20258;-74
2021/03/04 10:27:29;;;;;;;1.20;1.10;;;;;;;1.52;61.27;101723.16;6241291;28;20219;-74
2021/03/04 10:30:34;;;;;;;4.73;1.37;;;;;;;1.58;60.64;101725.31;6240861;28;20213;-73
2021/03/04 10:33:38;;;;;;;7.07;1.27;;;;;;;1.70;60.81;101726.88;6240874;28;20234;-73
2021/03/04 10:36:41;;;;;;;4.03;1.33;;;;;;;1.57;61.15;101728.97;6240275;28;20188;-73
2021/03/04 10:39:45;;;;;;;1.20;1.10;;;;;;;1.67;60.86;101733.41;6239502;28;20214;-74
2021/03/04 10:42:49;;;;;;;1.33;1.27;;;;;;;1.75;60.60;101721.94;6241016;28;20192;-74
2021/03/04 10:45:52;;;;;;;2.57;1.80;;;;;;;1.85;60.06;101728.19;6240004;28;20250;-73
2021/03/04 10:48:57;;;;;;;7.07;1.70;;;;;;;1.82;59.90;101723.09;6240252;28;20235;-73
2021/03/04 10:52:01;;;;;;;1.97;1.30;;;;;;;1.89;59.31;101724.25;6241984;28;20234;-74
2021/03/04 10:55:07;;;;;;;4.63;1.43;;;;;;;2.03;59.25;101714.91;6240911;28;20195;-74
2021/03/04 10:58:12;;;;;;;5.20;1.30;;;;;;;2.04;59.40;101712.06;6240379;28;20186;-73
2021/03/04 11:01:16;;;;;;;1.20;1.13;;;;;;;1.90;58.98;101717.84;6240087;28;20199;-75
2021/03/04 11:04:22;;;;;;;1.20;1.10;;;;;;;1.91;58.52;101724.94;6239011;28;20243;-75
2021/03/04 11:07:25;;;;;;;5.03;1.20;;;;;;;1.96;58.23;101713.75;6239087;28;20359;-74
2021/03/04 11:10:29;;;;;;;9.40;1.17;;;;;;;1.92;58.08;101721.28;6238096;28;20235;-74
2021/03/04 11:13:34;;;;;;;5.00;1.50;;;;;;;2.04;57.81;101717.47;6240082;28;20189;-74
2021/03/04 11:16:38;;;;;;;1.13;1.13;;;;;;;2.15;58.22;101714.63;6239184;28;20215;-75
2021/03/04 11:19:41;;;;;;;1.27;1.13;;;;;;;2.31;57.29;101704.13;6240194;28;20192;-74
2021/03/04 11:22:45;;;;;;;7.17;1.50;;;;;;;2.32;57.32;101700.44;6240274;28;20205;-72
2021/03/04 11:25:48;;;;;;;1.10;1.10;;;;;;;2.31;57.42;101714.06;6239697;28;20193;-75
2021/03/04 11:28:53;;;;;;;3.43;1.10;;;;;;;2.27;56.70;101708.09;6238432;28;20219;-74
2021/03/04 11:31:56;;;;;;;14.20;1.40;;;;;;;2.29;56.72;101708.81;6238412;28;20394;-74
2021/03/04 11:35:00;;;;;;;2.13;1.50;;;;;;;2.32;57.39;101716.59;6239564;28;20186;-74
2021/03/04 11:38:06;;;;;;;3.30;1.20;;;;;;;2.45;56.90;101719.88;6239079;28;20190;-74
2021/03/04 11:41:12;;;;;;;6.60;1.60;;;;;;;2.65;56.57;101706.34;6238493;28;20257;-74
2021/03/04 11:44:16;;;;;;;2.17;1.20;;;;;;;2.66;56.90;101702.66;6238983;28;20394;-74
2021/03/04 11:47:19;;;;;;;9.80;1.20;;;;;;;2.74;55.68;101706.34;6237740;28;20469;-74
2021/03/04 11:50:24;;;;;;;8.70;1.77;;;;;;;2.53;56.23;101713.75;6239073;28;20282;-74
2021/03/04 11:53:27;;;;;;;2.63;1.20;;;;;;;2.57;55.44;101698.16;6238035;28;20441;-74
2021/03/04 11:56:31;;;;;;;7.30;1.10;;;;;;;2.72;55.29;101707.50;6237795;28;20521;-74
2021/03/04 11:59:37;;;;;;;1.30;1.10;;;;;;;2.47;54.90;101715.19;6238982;28;20189;-74
2021/03/04 12:02:40;;;;;;;4.23;1.03;;;;;;;2.64;54.90;101696.59;6238374;28;20239;-74
2021/03/04 12:05:45;;;;;;;1.77;0.90;;;;;;;2.62;54.63;101695.88;6238510;28;20224;-74
2021/03/04 12:08:48;;;;;;;4.03;1.10;;;;;;;2.56;55.08;101693.75;6237067;28;20207;-74
2021/03/04 12:12:14;;;;;;;6.40;1.50;;;;;;;2.78;55.81;101696.09;6238802;28;20265;-74
2021/03/04 12:15:21;;;;;;;9.20;1.20;;;;;;;2.83;54.93;101699.22;6237335;28;20298;-74
2021/03/04 12:18:27;;;;;;;7.03;1.20;;;;;;;2.83;53.45;101710.00;6237348;28;20504;-74
2021/03/04 12:21:31;;;;;;;2.30;1.07;;;;;;;2.85;54.21;101686.47;6238615;28;20197;-74
2021/03/04 12:24:35;;;;;;;2.83;1.03;;;;;;;2.88;53.94;101691.53;6236202;28;20210;-75
2021/03/04 12:27:39;;;;;;;1.10;1.10;;;;;;;2.92;54.01;101692.97;6238678;28;20186;-74
2021/03/04 12:30:47;;;;;;;10.00;1.10;;;;;;;3.00;54.12;101687.69;6238363;28;20213;-74
2021/03/04 12:33:51;;;;;;;12.10;1.20;;;;;;;3.08;53.85;101691.31;6238476;28;20191;-74
2021/03/04 12:36:54;;;;;;;2.20;1.30;;;;;;;3.02;54.05;101689.25;6237882;28;20188;-74
2021/03/04 12:39:58;;;;;;;1.30;1.10;;;;;;;3.06;53.98;101681.69;6238105;28;20196;-74
2021/03/04 12:43:02;;;;;;;4.83;1.10;;;;;;;3.12;52.77;101686.50;6238091;28;20271;-74
2021/03/04 12:46:06;;;;;;;2.93;1.00;;;;;;;3.09;52.36;101684.09;6238128;28;20191;-74
2021/03/04 12:58:19;;;;;;;3.00;1.10;;;;;;;3.28;48.90;101684.03;6236930;28;20531;-75
2021/03/04 13:01:23;;;;;;;7.03;1.30;;;;;;;3.26;48.90;101675.22;6236343;28;20252;-73
2021/03/04 13:04:30;;;;;;;1.10;1.00;;;;;;;3.27;49.51;101676.91;6237598;28;20298;-73
2021/03/04 13:07:33;;;;;;;3.60;2.83;;;;;;;3.38;49.12;101674.03;6236635;28;20187;-74
2021/03/04 13:10:37;;;;;;;1.00;1.00;;;;;;;3.30;48.86;101671.22;6236915;28;20212;-74
2021/03/04 13:13:40;;;;;;;2.73;1.30;;;;;;;3.32;48.28;101671.91;6237997;28;20195;-73
2021/03/04 13:16:44;;;;;;;10.43;1.23;;;;;;;3.43;48.47;101654.69;6236067;28;20266;-74
2021/03/04 13:19:47;;;;;;;4.73;1.03;;;;;;;3.49;47.97;101660.31;6239657;28;20277;-73
2021/03/04 13:22:50;;;;;;;11.17;1.40;;;;;;;3.53;48.22;101661.72;6242531;28;20188;-73
2021/03/04 13:25:53;;;;;;;6.53;1.00;;;;;;;3.63;48.09;101662.50;6241171;28;20190;-72
2021/03/04 13:28:57;;;;;;;7.47;1.20;;;;;;;3.73;47.99;101657.88;6242114;28;20255;-73
2021/03/04 13:32:00;;;;;;;1.60;0.87;;;;;;;3.70;47.55;101668.97;6242465;28;20199;-73
2021/03/04 13:35:05;;;;;;;3.93;1.10;;;;;;;3.66;47.40;101664.91;6242288;28;20189;-73
2021/03/04 13:38:11;;;;;;;1.90;0.97;;;;;;;3.58;46.85;101656.72;6240965;28;20196;-73
2021/03/04 13:45:44;;;;;;;1.43;1.33;;;;;;;3.59;46.53;101650.34;6241619;28;20219;-74
2021/03/04 13:48:48;;;;;;;0.90;0.90;;;;;;;3.45;46.38;101642.75;6240564;28;20218;-73
2021/03/04 13:51:51;;;;;;;4.33;1.20;;;;;;;3.45;46.69;101640.03;6240286;28;20534;-74
2021/03/04 13:54:55;;;;;;;8.53;1.20;;;;;;;3.60;46.27;101646.63;6241355;28;20193;-73
2021/03/04 13:57:58;;;;;;;1.27;1.00;;;;;;;3.58;45.15;101664.81;6240740;28;20187;-73
2021/03/04 14:01:03;;;;;;;5.10;1.00;;;;;;;3.54;45.58;101649.94;6240906;28;20378;-74
2021/03/04 14:04:14;;;;;;;4.00;1.10;;;;;;;3.57;45.54;101646.91;6240629;28;20346;-76
2021/03/04 14:07:20;;;;;;;7.50;1.20;;;;;;;3.61;46.26;101652.88;6241341;28;20195;-73
2021/03/04 14:10:23;;;;;;;5.63;1.20;;;;;;;3.56;46.52;101649.78;6240206;28;20335;-75
2021/03/04 14:13:30;;;;;;;1.50;1.40;;;;;;;3.56;46.04;101653.34;6241044;28;20188;-74
2021/03/04 14:16:33;;;;;;;1.03;1.00;;;;;;;3.44;47.05;101646.44;6241076;28;20257;-74
2021/03/04 14:19:37;;;;;;;2.37;1.13;;;;;;;3.36;46.70;101649.06;6240840;28;20218;-74
2021/03/04 14:22:42;;;;;;;8.43;1.30;;;;;;;3.41;47.31;101646.75;6239857;28;20188;-74
2021/03/04 14:25:46;;;;;;;3.50;0.93;;;;;;;3.45;47.54;101642.75;6239966;28;20373;-74
2021/03/04 14:28:49;;;;;;;2.77;1.00;;;;;;;3.57;47.77;101636.13;6240642;28;20188;-74
2021/03/04 14:37:20;;;;;;;3.83;1.00;;;;;;;3.68;47.31;101638.59;6240335;28;20249;-73
2021/03/04 14:40:23;;;;;;;6.30;1.33;;;;;;;3.74;48.60;101638.00;6240686;28;20191;-72
2021/03/04 14:43:28;;;;;;;6.70;1.17;;;;;;;3.42;47.28;101643.03;6239481;28;20496;-73
2021/03/04 14:46:49;;;;;;;2.63;1.03;;;;;;;3.52;47.83;101643.81;6240227;28;20224;-74
2021/03/04 14:54:40;;;;;;;7.20;1.27;;;;;;;3.51;46.63;101652.94;6184434;23;20305;-73
2021/03/04 14:57:43;;;;;;;7.33;1.30;;;;;;;3.50;47.39;101640.44;6166012;29;20214;-73